Rotterdam Express — DMRX — position and weather

sailwx.info

Track history (hours):
 
Tides and Currents Weather Stations Pressure Air Temp Water Temp Dewpoint Dewpoint Depression Visibility Wind Speed Wind Dir Waves Ship Positions

Rotterdam Express

Last reported at 2016-Feb-06 19:34 UTC. Time now 2016-Feb-07 01:28 UTC.
Position N 34°55' W 121°15'.

Length 294 m; beam 32.2 m; draft 13.6 m.

Type: Ship. MMSI: 211335760.

Date/timePositionNaut miles runAvg speedWind from/ knotsBaromVisibWave heightAir tempDewpointWater temp
2016-Feb-06 19:34N 34°55' W 121°15'1312.0
2016-Feb-06 18:29N 34°44' W 121°07'1019.7
2016-Feb-06 18:00N 34°36' W 121°00'3 6.3 050 / 71027.310.8 0.515.0 8.215.0
2016-Feb-06 17:33N 34°33' W 121°00'2512.5
2016-Feb-06 15:31N 34°22' W 120°33'11712.4
2016-Feb-06 06:04N 33°39' W 118°22'510.2
2016-Feb-06 05:34N 33°39' W 118°16'5 5.0
2016-Feb-06 04:33N 33°43' W 118°13'1 0.2
2016-Feb-05 22:10N 33°44' W 118°15'0 0.0
2016-Feb-05 19:25N 33°44' W 118°15'0 0.0
2016-Feb-05 17:10N 33°44' W 118°15'0 0.0
2016-Feb-05 16:33N 33°44' W 118°15'0 0.0
2016-Feb-05 14:33N 33°44' W 118°15'0 0.3
2016-Feb-05 13:34N 33°44' W 118°15'7 6.8
2016-Feb-05 12:33N 33°38' W 118°12'1010.3
2016-Feb-05 11:33N 33°28' W 118°07'1211.5
2016-Feb-05 10:33N 33°17' W 118°02'1313.3
2016-Feb-05 09:33N 33°05' W 117°57'1413.7
2016-Feb-05 08:33N 32°52' W 117°52'1413.9
2016-Feb-05 07:34N 32°39' W 117°46'1515.5
2016-Feb-05 06:34N 32°24' W 117°40'1615.5
2016-Feb-05 05:33N 32°10' W 117°34'1515.2
2016-Feb-05 04:34N 31°55' W 117°28'1615.2
2016-Feb-05 03:31N 31°40' W 117°22'15115.9
2016-Feb-04 18:00N 29°18' W 116°24'   070 / 51024.710.8 0.517.2 9.917.0
2016-Jan-30 21:26N 16°24' W 100°00'  
Track history (hours):
 
Tides and Currents Weather Stations Pressure Air Temp Water Temp Dewpoint Dewpoint Depression Visibility Wind Speed Wind Dir Waves Ship Positions

Rotterdam Express

Last reported at 2016-Feb-06 19:34 UTC. Time now 2016-Feb-07 01:28 UTC.
Position N 34°55' W 121°15'.

Length 294 m; beam 32.2 m; draft 13.6 m.

Type: Ship. MMSI: 211335760.

Date/timePositionNaut miles runAvg speedWind from/ knotsBaromVisibWave heightAir tempDewpointWater temp
2016-Feb-06 19:34N 34°55' W 121°15'1312.0
2016-Feb-06 18:29N 34°44' W 121°07'1019.7
2016-Feb-06 18:00N 34°36' W 121°00'3 6.3 050 / 71027.310.8 0.515.0 8.215.0
2016-Feb-06 17:33N 34°33' W 121°00'2512.5
2016-Feb-06 15:31N 34°22' W 120°33'11712.4
2016-Feb-06 06:04N 33°39' W 118°22'510.2
2016-Feb-06 05:34N 33°39' W 118°16'5 5.0
2016-Feb-06 04:33N 33°43' W 118°13'1 0.2
2016-Feb-05 22:10N 33°44' W 118°15'0 0.0
2016-Feb-05 19:25N 33°44' W 118°15'0 0.0
2016-Feb-05 17:10N 33°44' W 118°15'0 0.0
2016-Feb-05 16:33N 33°44' W 118°15'0 0.0
2016-Feb-05 14:33N 33°44' W 118°15'0 0.3
2016-Feb-05 13:34N 33°44' W 118°15'7 6.8
2016-Feb-05 12:33N 33°38' W 118°12'1010.3
2016-Feb-05 11:33N 33°28' W 118°07'1211.5
2016-Feb-05 10:33N 33°17' W 118°02'1313.3
2016-Feb-05 09:33N 33°05' W 117°57'1413.7
2016-Feb-05 08:33N 32°52' W 117°52'1413.9
2016-Feb-05 07:34N 32°39' W 117°46'1515.5
2016-Feb-05 06:34N 32°24' W 117°40'1615.5
2016-Feb-05 05:33N 32°10' W 117°34'1515.2
2016-Feb-05 04:34N 31°55' W 117°28'1615.2
2016-Feb-05 03:31N 31°40' W 117°22'15115.9
2016-Feb-04 18:00N 29°18' W 116°24'   070 / 51024.710.8 0.517.2 9.917.0
2016-Jan-30 21:26N 16°24' W 100°00'  

Dump ship's entire track history